createdAt,value
2023-02-16T00:01:20.454Z,30.03
2023-02-16T00:03:50.348Z,26.57
2023-02-16T00:06:20.032Z,31.13
2023-02-16T00:08:51.349Z,35.53
2023-02-16T00:11:42.994Z,30.83
2023-02-16T00:14:14.073Z,32.17
2023-02-16T00:16:43.642Z,31.40
2023-02-16T00:19:18.763Z,31.83
2023-02-16T00:21:48.435Z,34.67
2023-02-16T00:24:17.849Z,39.17
2023-02-16T00:26:49.051Z,29.17
2023-02-16T00:29:23.794Z,35.50
2023-02-16T00:31:53.438Z,31.47
2023-02-16T00:34:30.989Z,28.30
2023-02-16T00:37:03.585Z,33.40
2023-02-16T00:39:33.167Z,31.37
2023-02-16T00:42:06.414Z,29.27
2023-02-16T00:44:41.298Z,30.50
2023-02-16T00:47:19.830Z,29.93
2023-02-16T00:49:50.295Z,30.80
2023-02-16T00:52:32.029Z,32.03
2023-02-16T00:55:02.397Z,34.43
2023-02-16T00:57:36.679Z,27.20
2023-02-16T01:00:13.899Z,30.23
2023-02-16T01:02:43.605Z,31.97
2023-02-16T01:05:13.070Z,38.60
2023-02-16T01:07:59.812Z,33.43
2023-02-16T01:10:48.025Z,33.50
2023-02-16T01:13:19.187Z,34.33
2023-02-16T01:15:48.393Z,33.50
2023-02-16T01:18:20.105Z,30.07
2023-02-16T01:20:49.657Z,36.97
2023-02-16T01:23:18.764Z,32.43
2023-02-16T01:25:48.018Z,33.70
2023-02-16T01:28:23.104Z,39.87
2023-02-16T01:30:54.037Z,42.83
2023-02-16T01:33:23.293Z,34.73
2023-02-16T01:35:54.572Z,33.13
2023-02-16T01:38:25.897Z,35.17
2023-02-16T01:41:06.352Z,36.23
2023-02-16T01:43:45.536Z,36.10
2023-02-16T01:46:21.241Z,41.83
2023-02-16T01:48:50.374Z,39.50
2023-02-16T01:51:24.903Z,35.37
2023-02-16T01:53:59.658Z,41.70
2023-02-16T01:56:33.822Z,45.30
2023-02-16T01:59:14.039Z,43.67
2023-02-16T02:01:50.244Z,47.83
2023-02-16T02:04:51.980Z,44.57
2023-02-16T02:07:27.820Z,42.43
2023-02-16T02:10:07.148Z,36.63
2023-02-16T02:12:45.663Z,40.63
2023-02-16T02:15:20.971Z,53.80
2023-02-16T02:17:50.126Z,43.77
2023-02-16T02:20:49.692Z,45.03
2023-02-16T02:23:43.094Z,43.90
2023-02-16T02:26:45.174Z,40.50
2023-02-16T02:29:59.079Z,37.97
2023-02-16T02:32:42.910Z,42.13
2023-02-16T02:35:23.044Z,44.17
2023-02-16T02:38:02.997Z,42.80
2023-02-16T02:40:42.824Z,42.40
2023-02-16T02:43:18.509Z,49.17
2023-02-16T02:45:52.052Z,50.97
2023-02-16T02:48:22.691Z,46.37
2023-02-16T02:51:12.683Z,46.97
2023-02-16T02:53:45.847Z,45.37
2023-02-16T02:56:35.968Z,52.00
2023-02-16T02:59:26.704Z,62.40
2023-02-16T03:02:00.539Z,55.43
2023-02-16T03:04:34.297Z,53.53
2023-02-16T03:07:06.162Z,54.77
2023-02-16T03:09:35.247Z,67.93
2023-02-16T03:12:24.322Z,49.30
2023-02-16T03:14:57.741Z,54.30
2023-02-16T03:17:50.601Z,49.03
2023-02-16T03:20:39.414Z,50.47
2023-02-16T03:23:27.187Z,49.57
2023-02-16T03:26:14.253Z,48.27
2023-02-16T03:29:03.880Z,54.50
2023-02-16T03:31:35.925Z,51.80
2023-02-16T03:34:05.766Z,55.60
2023-02-16T03:36:39.155Z,58.97
2023-02-16T03:39:09.473Z,57.47
2023-02-16T03:41:41.738Z,53.37
2023-02-16T03:44:10.934Z,54.13
2023-02-16T03:46:40.036Z,56.00
2023-02-16T03:49:09.111Z,53.07
2023-02-16T03:51:39.562Z,61.83
2023-02-16T03:54:09.049Z,62.47
2023-02-16T03:56:38.098Z,56.30
2023-02-16T03:59:07.150Z,58.73
2023-02-16T04:01:36.225Z,64.17
2023-02-16T04:04:05.433Z,61.53
2023-02-16T04:06:34.521Z,56.87
2023-02-16T04:09:05.000Z,61.77
2023-02-16T04:11:51.393Z,57.47
2023-02-16T04:14:20.416Z,57.73
2023-02-16T04:16:49.572Z,69.50
2023-02-16T04:19:18.684Z,53.20
2023-02-16T04:21:47.939Z,65.10
2023-02-16T04:24:18.338Z,60.97
2023-02-16T04:26:49.399Z,56.17
2023-02-16T04:29:18.689Z,60.80
2023-02-16T04:31:47.876Z,57.00
2023-02-16T04:34:17.130Z,63.87
2023-02-16T04:36:46.189Z,49.10
2023-02-16T04:39:15.357Z,49.63
2023-02-16T04:41:45.814Z,57.97
2023-02-16T04:44:14.883Z,52.93
2023-02-16T04:46:43.980Z,62.10
2023-02-16T04:49:12.999Z,60.63
2023-02-16T04:51:42.009Z,57.47
2023-02-16T04:54:11.127Z,50.53
2023-02-16T04:56:40.221Z,49.47
2023-02-16T04:59:10.617Z,53.77
2023-02-16T05:01:39.760Z,56.30
2023-02-16T05:04:10.050Z,47.80
2023-02-16T05:06:39.609Z,49.77
2023-02-16T05:09:08.823Z,44.33
2023-02-16T05:11:55.314Z,41.50
2023-02-16T05:14:44.529Z,49.93
2023-02-16T05:17:16.257Z,46.63
2023-02-16T05:19:47.192Z,53.93
2023-02-16T05:22:16.813Z,45.33
2023-02-16T05:24:46.279Z,55.90
2023-02-16T05:27:20.572Z,49.37
2023-02-16T05:29:51.347Z,51.17
2023-02-16T05:32:21.210Z,48.27
2023-02-16T05:34:51.267Z,58.50
2023-02-16T05:37:20.711Z,54.03
2023-02-16T05:39:49.827Z,52.50
2023-02-16T05:42:18.873Z,47.87
2023-02-16T05:44:48.309Z,49.90
2023-02-16T05:47:18.815Z,59.90
2023-02-16T05:49:47.923Z,53.80
2023-02-16T05:52:17.003Z,49.53
2023-02-16T05:54:46.096Z,52.03
2023-02-16T05:57:15.320Z,57.80
2023-02-16T05:59:44.403Z,50.83
2023-02-16T06:02:13.505Z,48.20
2023-02-16T06:04:44.013Z,50.97
2023-02-16T06:07:14.818Z,40.17
2023-02-16T06:09:44.103Z,52.10
2023-02-16T06:12:13.260Z,52.00
2023-02-16T06:14:42.355Z,50.93
2023-02-16T06:17:11.443Z,47.70
2023-02-16T06:19:40.507Z,46.97
2023-02-16T06:22:10.995Z,50.53
2023-02-16T06:24:40.105Z,54.60
2023-02-16T06:27:09.342Z,54.63
2023-02-16T06:29:38.430Z,48.77
2023-02-16T06:32:07.745Z,55.87
2023-02-16T06:34:36.887Z,50.37
2023-02-16T06:37:06.031Z,52.03
2023-02-16T06:39:36.453Z,54.90
2023-02-16T06:42:05.988Z,47.63
2023-02-16T06:44:35.009Z,51.67
2023-02-16T06:47:04.020Z,50.30
2023-02-16T06:49:33.137Z,42.33
2023-02-16T06:52:02.465Z,57.90
2023-02-16T06:54:31.663Z,48.10
2023-02-16T06:57:02.381Z,50.80
2023-02-16T06:59:31.710Z,51.73
2023-02-16T07:02:00.843Z,57.80
2023-02-16T07:04:29.982Z,53.93
2023-02-16T07:06:59.088Z,50.07
2023-02-16T07:09:28.311Z,53.60
2023-02-16T07:11:57.547Z,52.67
2023-02-16T07:14:28.033Z,60.60
2023-02-16T07:16:59.234Z,50.50
2023-02-16T07:19:30.293Z,53.50
2023-02-16T07:21:59.483Z,56.17
2023-02-16T07:24:28.677Z,56.40
2023-02-16T07:26:57.986Z,56.60
2023-02-16T07:29:28.430Z,59.47
2023-02-16T07:31:58.045Z,59.90
2023-02-16T07:34:27.612Z,50.07
2023-02-16T07:36:58.004Z,56.23
2023-02-16T07:39:28.899Z,46.50
2023-02-16T07:41:57.974Z,52.13
2023-02-16T07:44:29.895Z,60.83
2023-02-16T07:46:59.010Z,62.43
2023-02-16T07:49:28.099Z,61.83
2023-02-16T07:51:57.168Z,55.10
2023-02-16T07:54:26.262Z,61.67
2023-02-16T07:56:55.328Z,55.70
2023-02-16T07:59:24.505Z,54.63
2023-02-16T08:01:55.087Z,53.57
2023-02-16T08:04:24.265Z,49.00
2023-02-16T08:06:53.406Z,55.20
2023-02-16T08:09:22.518Z,64.57
2023-02-16T08:11:51.657Z,52.33
2023-02-16T08:14:20.723Z,53.60
2023-02-16T08:16:53.606Z,49.43
2023-02-16T08:19:25.665Z,60.63
2023-02-16T08:21:54.712Z,58.30
2023-02-16T08:24:24.893Z,49.97
2023-02-16T08:26:55.741Z,55.17
2023-02-16T08:29:25.311Z,50.47
2023-02-16T08:31:55.501Z,52.13
2023-02-16T08:34:27.341Z,53.17
2023-02-16T08:36:58.668Z,51.90
2023-02-16T08:39:31.266Z,58.33
2023-02-16T08:42:02.093Z,60.40
2023-02-16T08:44:31.406Z,41.47
2023-02-16T08:47:01.693Z,54.17
2023-02-16T08:49:32.955Z,50.83
2023-02-16T08:52:01.990Z,60.60
2023-02-16T08:54:33.294Z,49.43
2023-02-16T08:57:04.013Z,53.73
2023-02-16T08:59:34.448Z,48.90
2023-02-16T09:02:04.158Z,49.00
2023-02-16T09:04:34.762Z,49.43
2023-02-16T09:07:04.332Z,49.57
2023-02-16T09:09:33.487Z,60.53
2023-02-16T09:12:02.547Z,45.33
2023-02-16T09:14:31.604Z,48.17
2023-02-16T09:17:00.728Z,46.17
2023-02-16T09:19:29.857Z,54.53
2023-02-16T09:22:00.554Z,52.37
2023-02-16T09:24:29.756Z,52.77
2023-02-16T09:26:58.820Z,45.47
2023-02-16T09:29:27.959Z,56.50
2023-02-16T09:31:57.049Z,52.17
2023-02-16T09:34:27.934Z,47.47
2023-02-16T09:36:58.301Z,49.33
2023-02-16T09:39:29.533Z,53.70
2023-02-16T09:42:16.616Z,53.73
2023-02-16T09:44:53.576Z,37.63
2023-02-16T09:47:29.244Z,45.57
2023-02-16T09:50:00.315Z,47.80
2023-02-16T09:52:36.926Z,46.27
2023-02-16T09:55:12.754Z,43.80
2023-02-16T09:58:08.017Z,49.10
2023-02-16T10:00:49.409Z,45.07
2023-02-16T10:03:34.998Z,55.80
2023-02-16T10:06:17.453Z,49.50
2023-02-16T10:08:50.163Z,41.13
2023-02-16T10:11:40.642Z,59.17
2023-02-16T10:14:25.983Z,44.00
2023-02-16T10:17:02.740Z,49.40
2023-02-16T10:19:39.588Z,44.03
2023-02-16T10:22:17.344Z,49.30
2023-02-16T10:25:00.998Z,41.63
2023-02-16T10:27:42.936Z,36.33
2023-02-16T10:30:16.917Z,42.93
2023-02-16T10:32:56.363Z,46.60
2023-02-16T10:35:38.056Z,40.43
2023-02-16T10:38:15.812Z,42.53
2023-02-16T10:40:53.893Z,41.40
2023-02-16T10:43:35.106Z,42.27
2023-02-16T10:46:05.058Z,45.30
2023-02-16T10:48:34.993Z,44.67
2023-02-16T10:51:07.718Z,40.43
2023-02-16T10:53:43.778Z,37.70
2023-02-16T10:56:49.576Z,45.10
2023-02-16T10:59:22.636Z,34.60
2023-02-16T11:01:54.026Z,43.80
2023-02-16T11:04:40.571Z,38.23
2023-02-16T11:07:12.594Z,44.40
2023-02-16T11:09:44.646Z,42.70
2023-02-16T11:12:30.167Z,44.03
2023-02-16T11:15:06.036Z,40.60
2023-02-16T11:17:50.747Z,44.03
2023-02-16T11:20:30.051Z,38.43
2023-02-16T11:23:16.623Z,42.13
2023-02-16T11:25:58.010Z,44.30
2023-02-16T11:28:33.253Z,42.50
2023-02-16T11:31:14.913Z,47.03
2023-02-16T11:33:55.378Z,41.50
2023-02-16T11:36:33.187Z,37.03
2023-02-16T11:39:06.862Z,41.17
2023-02-16T11:41:36.730Z,40.67
2023-02-16T11:44:06.190Z,43.20
2023-02-16T11:46:43.096Z,39.63
2023-02-16T11:49:32.325Z,39.40
2023-02-16T11:52:03.206Z,42.77
2023-02-16T11:54:32.594Z,38.93
2023-02-16T11:57:09.590Z,43.60
2023-02-16T11:59:41.426Z,43.10
2023-02-16T12:02:48.494Z,42.20
2023-02-16T12:05:28.610Z,37.70
2023-02-16T12:08:19.352Z,41.23
2023-02-16T12:11:07.377Z,40.33
2023-02-16T12:13:44.822Z,41.23
2023-02-16T12:16:28.212Z,47.47
2023-02-16T12:19:12.497Z,38.20
2023-02-16T12:21:46.247Z,41.03
2023-02-16T12:24:30.817Z,38.23
2023-02-16T12:27:02.563Z,48.97
2023-02-16T12:29:45.430Z,39.97
2023-02-16T12:32:30.185Z,45.83
2023-02-16T12:35:17.007Z,41.80
2023-02-16T12:37:53.961Z,43.57
2023-02-16T12:40:34.226Z,42.77
2023-02-16T12:43:16.463Z,44.90
2023-02-16T12:45:48.067Z,39.23
2023-02-16T12:48:32.819Z,47.77
2023-02-16T12:51:07.330Z,40.30
2023-02-16T12:53:43.838Z,47.53
2023-02-16T12:56:19.198Z,51.13
2023-02-16T12:58:55.346Z,50.93
2023-02-16T13:01:27.023Z,54.03
2023-02-16T13:04:00.907Z,52.37
2023-02-16T13:06:37.398Z,62.17
2023-02-16T13:09:18.901Z,57.10
2023-02-16T13:11:51.938Z,56.57
2023-02-16T13:14:26.154Z,58.10
2023-02-16T13:16:57.962Z,57.70
2023-02-16T13:19:27.241Z,62.47
2023-02-16T13:22:25.084Z,61.07
2023-02-16T13:25:05.256Z,64.90
2023-02-16T13:27:45.471Z,64.73
2023-02-16T13:30:40.164Z,56.00
2023-02-16T13:33:30.487Z,54.83
2023-02-16T13:36:33.938Z,59.63
2023-02-16T13:39:26.914Z,56.10
2023-02-16T13:42:25.799Z,55.77
2023-02-16T13:44:58.802Z,58.77
2023-02-16T13:47:32.004Z,59.13
2023-02-16T13:50:03.671Z,61.20
2023-02-16T13:52:37.058Z,55.77
2023-02-16T13:55:23.092Z,53.43
2023-02-16T13:58:05.777Z,60.60
2023-02-16T14:00:38.246Z,62.00
2023-02-16T14:03:13.232Z,61.07
2023-02-16T14:05:44.579Z,59.23
2023-02-16T14:08:17.802Z,54.13
2023-02-16T14:11:10.657Z,60.93
2023-02-16T14:13:48.861Z,48.20
2023-02-16T14:16:33.592Z,55.47
2023-02-16T14:19:06.321Z,57.07
2023-02-16T14:21:41.625Z,53.10
2023-02-16T14:24:14.811Z,56.43
2023-02-16T14:26:59.885Z,59.37
2023-02-16T14:29:32.537Z,55.97
2023-02-16T14:32:05.915Z,59.90
2023-02-16T14:34:41.952Z,50.97
2023-02-16T14:37:34.978Z,56.23
2023-02-16T14:40:23.621Z,54.43
2023-02-16T14:43:04.835Z,53.27
2023-02-16T14:45:59.761Z,51.00
2023-02-16T14:49:19.322Z,51.50
2023-02-16T14:52:39.466Z,60.53
2023-02-16T14:55:36.250Z,54.60
2023-02-16T14:58:21.219Z,60.23
2023-02-16T15:00:54.179Z,56.53
2023-02-16T15:03:25.095Z,58.23
2023-02-16T15:05:58.452Z,55.77
2023-02-16T15:08:35.048Z,52.43
2023-02-16T15:11:15.653Z,52.53
2023-02-16T15:13:46.925Z,53.00
2023-02-16T15:16:18.625Z,62.90
2023-02-16T15:18:51.994Z,63.33
2023-02-16T15:21:24.083Z,54.97
2023-02-16T15:23:56.129Z,61.47
2023-02-16T15:26:27.225Z,55.37
2023-02-16T15:29:00.183Z,58.40
2023-02-16T15:31:33.851Z,46.93
2023-02-16T15:34:05.628Z,55.87
2023-02-16T15:36:37.405Z,60.83
2023-02-16T15:39:08.377Z,50.23
2023-02-16T15:41:40.100Z,53.47
2023-02-16T15:44:28.854Z,56.60
2023-02-16T15:47:08.083Z,60.40
2023-02-16T15:49:38.816Z,54.50
2023-02-16T15:52:12.865Z,54.40
2023-02-16T15:54:43.532Z,48.97
2023-02-16T15:57:22.706Z,60.50
2023-02-16T15:59:58.377Z,52.40
2023-02-16T16:02:34.014Z,55.07
2023-02-16T16:05:06.150Z,57.10
2023-02-16T16:07:37.299Z,53.80
2023-02-16T16:10:16.000Z,49.37
2023-02-16T16:12:46.557Z,52.43
2023-02-16T16:15:23.042Z,56.50
2023-02-16T16:17:54.716Z,46.57
2023-02-16T16:20:31.517Z,48.20
2023-02-16T16:23:04.445Z,62.17
2023-02-16T16:25:43.214Z,50.57
2023-02-16T16:28:15.442Z,51.17
2023-02-16T16:30:46.640Z,55.97
2023-02-16T16:33:17.030Z,49.07
2023-02-16T16:35:48.398Z,49.50
2023-02-16T16:38:25.783Z,47.07
2023-02-16T16:40:57.685Z,56.70
2023-02-16T16:43:29.975Z,49.57
2023-02-16T16:46:14.710Z,50.40
2023-02-16T16:48:47.455Z,47.23
2023-02-16T16:51:18.778Z,51.33
2023-02-16T16:53:59.906Z,50.53
2023-02-16T16:56:30.411Z,49.10
2023-02-16T16:59:00.414Z,48.03
2023-02-16T17:01:31.505Z,42.53
2023-02-16T17:04:01.292Z,43.53
2023-02-16T17:06:31.077Z,51.27
2023-02-16T17:09:00.212Z,58.97
2023-02-16T17:11:31.908Z,48.00
2023-02-16T17:14:09.121Z,41.80
2023-02-16T17:16:42.596Z,53.67
2023-02-16T17:19:13.193Z,55.50
2023-02-16T17:21:42.780Z,52.87
2023-02-16T17:24:11.870Z,45.67
2023-02-16T17:26:41.583Z,47.70
2023-02-16T17:29:10.924Z,52.00
2023-02-16T17:31:41.524Z,51.87
2023-02-16T17:34:10.631Z,55.63
2023-02-16T17:36:39.757Z,54.50
2023-02-16T17:39:08.887Z,55.63
2023-02-16T17:41:38.025Z,58.17
2023-02-16T17:44:07.228Z,42.87
2023-02-16T17:46:36.363Z,51.83
2023-02-16T17:49:07.125Z,52.00
2023-02-16T17:51:36.505Z,51.37
2023-02-16T17:54:06.552Z,52.17
2023-02-16T17:56:37.104Z,54.77
2023-02-16T17:59:06.454Z,52.47
2023-02-16T18:01:37.625Z,53.27
2023-02-16T18:04:08.219Z,52.67
2023-02-16T18:06:37.364Z,55.73
2023-02-16T18:09:07.752Z,64.87
2023-02-16T18:11:36.813Z,56.43
2023-02-16T18:14:05.851Z,57.07
2023-02-16T18:16:34.993Z,60.83
2023-02-16T18:19:04.503Z,52.30
2023-02-16T18:21:36.351Z,54.37
2023-02-16T18:24:06.512Z,49.60
2023-02-16T18:26:35.968Z,47.67
2023-02-16T18:29:05.894Z,45.37
2023-02-16T18:31:35.462Z,51.60
2023-02-16T18:34:05.968Z,52.73
2023-02-16T18:36:36.423Z,56.10
2023-02-16T18:39:06.348Z,51.03
2023-02-16T18:41:35.542Z,48.40
2023-02-16T18:44:04.729Z,53.97
2023-02-16T18:46:33.884Z,54.97
2023-02-16T18:49:03.014Z,53.43
2023-02-16T18:51:33.524Z,47.67
2023-02-16T18:54:04.103Z,51.63
2023-02-16T18:56:35.387Z,50.30
2023-02-16T18:59:05.201Z,50.13
2023-02-16T19:01:35.109Z,53.67
2023-02-16T19:04:06.101Z,65.33
2023-02-16T19:06:35.493Z,44.33
2023-02-16T19:09:06.754Z,53.47
2023-02-16T19:11:35.897Z,46.40
2023-02-16T19:14:05.065Z,53.30
2023-02-16T19:16:34.108Z,46.53
2023-02-16T19:19:03.241Z,45.67
2023-02-16T19:21:32.691Z,48.60
2023-02-16T19:24:02.300Z,58.63
2023-02-16T19:26:36.278Z,51.13
2023-02-16T19:29:05.651Z,41.43
2023-02-16T19:31:35.525Z,48.63
2023-02-16T19:34:08.557Z,42.63
2023-02-16T19:36:37.919Z,40.07
2023-02-16T19:39:07.109Z,47.30
2023-02-16T19:41:40.997Z,48.73
2023-02-16T19:44:12.975Z,47.67
2023-02-16T19:46:46.187Z,45.43
2023-02-16T19:49:17.222Z,49.93
2023-02-16T19:51:47.649Z,51.37
2023-02-16T19:54:17.064Z,47.23
2023-02-16T19:56:47.570Z,48.47
2023-02-16T19:59:17.359Z,45.60
2023-02-16T20:01:47.084Z,45.67
2023-02-16T20:04:16.341Z,45.27
2023-02-16T20:06:48.829Z,45.90
2023-02-16T20:09:18.772Z,45.43
2023-02-16T20:11:49.567Z,44.73
2023-02-16T20:14:18.942Z,44.90
2023-02-16T20:16:49.551Z,46.50
2023-02-16T20:19:19.033Z,49.30
2023-02-16T20:21:48.276Z,48.73
2023-02-16T20:24:18.105Z,42.20
2023-02-16T20:26:51.929Z,50.17
2023-02-16T20:29:21.710Z,47.77
2023-02-16T20:31:53.212Z,46.70
2023-02-16T20:34:35.288Z,54.87
2023-02-16T20:37:04.482Z,53.20
2023-02-16T20:39:33.769Z,52.70
2023-02-16T20:42:04.462Z,55.57
2023-02-16T20:44:33.610Z,53.87
2023-02-16T20:47:02.738Z,50.90
2023-02-16T20:49:32.204Z,51.17
2023-02-16T20:52:02.424Z,52.03
2023-02-16T20:54:32.340Z,52.63
2023-02-16T20:57:02.786Z,49.17
2023-02-16T20:59:32.482Z,57.10
2023-02-16T21:02:04.562Z,51.33
2023-02-16T21:04:34.343Z,51.57
2023-02-16T21:07:03.997Z,50.90
2023-02-16T21:09:34.070Z,48.13
2023-02-16T21:12:05.464Z,54.73
2023-02-16T21:14:35.288Z,50.50
2023-02-16T21:17:05.335Z,49.67
2023-02-16T21:19:35.175Z,52.63
2023-02-16T21:22:04.674Z,50.17
2023-02-16T21:24:34.382Z,53.50
2023-02-16T21:27:05.122Z,48.80
2023-02-16T21:29:34.648Z,52.47
2023-02-16T21:32:04.064Z,55.47
2023-02-16T21:34:33.153Z,53.80
2023-02-16T21:37:02.505Z,53.63
2023-02-16T21:39:45.539Z,52.43
2023-02-16T21:42:16.064Z,47.10
2023-02-16T21:44:49.810Z,42.23
2023-02-16T21:47:36.460Z,37.63
2023-02-16T21:50:05.924Z,47.40
2023-02-16T21:52:34.947Z,48.53
2023-02-16T21:55:21.705Z,42.10
2023-02-16T21:57:53.025Z,43.23
2023-02-16T22:00:22.311Z,38.10
2023-02-16T22:02:51.512Z,43.00
2023-02-16T22:05:20.733Z,40.17
2023-02-16T22:07:50.120Z,40.37
2023-02-16T22:10:19.243Z,38.57
2023-02-16T22:12:48.432Z,41.47
2023-02-16T22:15:19.384Z,43.10
2023-02-16T22:17:49.393Z,39.20
2023-02-16T22:20:19.297Z,40.63
2023-02-16T22:22:48.407Z,39.77
2023-02-16T22:25:17.697Z,37.47
2023-02-16T22:27:46.723Z,39.00
2023-02-16T22:30:16.201Z,37.40
2023-02-16T22:32:46.677Z,31.17
2023-02-16T22:35:15.768Z,33.70
2023-02-16T22:37:44.925Z,33.20
2023-02-16T22:40:13.999Z,41.40
2023-02-16T22:42:43.079Z,37.90
2023-02-16T22:45:12.585Z,33.27
2023-02-16T22:47:41.655Z,35.87
2023-02-16T22:50:12.573Z,27.07
2023-02-16T22:52:41.697Z,33.13
2023-02-16T22:55:11.098Z,29.07
2023-02-16T22:57:40.657Z,21.80
2023-02-16T23:00:15.621Z,37.73
2023-02-16T23:02:44.749Z,33.90
2023-02-16T23:05:15.182Z,31.00
2023-02-16T23:07:44.264Z,32.37
2023-02-16T23:10:13.658Z,32.50
2023-02-16T23:12:42.689Z,33.13
2023-02-16T23:15:12.175Z,29.73
2023-02-16T23:17:41.198Z,29.43
2023-02-16T23:20:10.921Z,29.50
2023-02-16T23:22:41.342Z,28.13
2023-02-16T23:25:39.766Z,28.30
2023-02-16T23:28:08.841Z,20.67
2023-02-16T23:30:42.426Z,27.97
2023-02-16T23:33:11.914Z,27.37
2023-02-16T23:35:41.594Z,34.13
2023-02-16T23:38:15.390Z,27.47
2023-02-16T23:40:44.871Z,28.67
2023-02-16T23:43:13.915Z,33.37
2023-02-16T23:45:43.020Z,25.20
2023-02-16T23:48:12.085Z,24.90
2023-02-16T23:50:41.132Z,29.60
2023-02-16T23:53:11.565Z,25.43
2023-02-16T23:55:40.632Z,29.97
2023-02-16T23:58:10.072Z,29.20
